Current Conditions
Mostly Scattered
Clouds




Pressure
29.84 (inHG) - 1010.52 (mb)
Visibility

8.0 (mimiles) - 12.9 (km)
   Temperature
70  °F
21°C
59  °F
Dewpoint
69  %
 Humidity
   Wind Speed
13  mph
11  kts
21  km/h
5.8  m/s
   Wind Direction
 190°
Due South
   Airport Data
KSNA
Location John Wayne-Orange County 15 mi (24.14 km)
Metar :KSNA 042253Z 19011KT 8SM SCT010 OVC015 21/15 A2984 RMK AO2 SLP103 T02110150
Thu 4th June 14:53 pm
   Raw Metar Info
Raw METAR is the most common format in the world for the transmission of observational weather data. It is highly standardized through the International Civil Aviation Organization (ICAO), which allows it to be understood throughout most of the world.
   API Info
Data Provided by
https://www.checkwx.com/weather/KSNA
   © Info
CSS/SVG/PHP scripts were developed by weather34.com for use in the weather34 template © 2015-2020

Guide Info provided by Metar-Wikipedia